Share

Rousseau, KY (41366)

8:58 PM EDT on April 23, 2014 (GMT -0400)
RAWS JACKSON CO AP KY US (MJCAK2) Elev 1388 ft | 37.59 °N, 83.32 °W | Change Station
Active Advisory: Special Statement

Current weather conditions updated 43 minutes ago

Clear
Clear
57 °F
Feels Like 57 °F
N
3
Wind Variable Wind from NNW
Gusts 8.0 mph
Sunrise 6:47 AM
Sunset 8:15 PM
Moon Waning Crescent

Tomorrow is forecast to be Much Warmer than today. Showers late tomorrow night.

Pressure 30.04 in
Visibility 10.0 miles
Clouds Clear
Dew Point 28 °F
Humidity 33%
Rainfall 0.00 in
Snow Depth Not available.
UV 0 out of 16
Pollen 10.00 out of 12
Air Quality Not available.
Flu Activity Sporadic
METAR KJKL 240053Z AUTO VRB05KT 10SM CLR 13/M02 A3004 RMK AO2 SLP170 T01281022

More Conditions Fewer Conditions

Pressure 30.04 in
Visibility 10.0 miles
Clouds Clear
Dew Point 28 °F
Humidity 33%
Rainfall 0.00 in
Snow Depth Not available.
UV 0 out of 16
Pollen 10.00 out of 12
Air Quality Not available.
Flu Activity Sporadic
METAR KJKL 240053Z AUTO VRB05KT 10SM CLR 13/M02 A3004 RMK AO2 SLP170 T01281022

More Conditions Fewer Conditions

10-Day Weather Forecast

Almanac

Astronomy

Apr. 23, 2014 Rise Set
Actual Time 6:47 AM EDT 8:15 PM EDT
Civil Twilight 6:19 AM EDT 8:43 PM EDT
Nautical Twilight 5:46 AM EDT 9:16 PM EDT
Astronomical Twilight 5:11 AM EDT 9:51 PM EDT
Moon 3:11 AM EDT (4/23) 2:29 PM EDT (4/23)
Length of Visible Light 14h 23m
Length of Day
13h 28m
Tomorrow will be 2m 11s longer.
Waning Crescent, 31% of the Moon is Illuminated
Today
Waning Crescent
Apr 29
New
May 6
First Quarter
May 14
Full
May 21
Last Quarter

Today's Extremes

State Highs State Lows

Community

  • Nestled In
    Nestled In
  • Stunning Sunrise
    Stunning Sunrise
  • spring flowers
    spring flowers
  • Earth Day Spectrum Ove' Blue
    Earth Day Spectrum Ove' Blue
  • BARN B&W
    BARN B&W

WunderPhotos

Upload Photos

1,704,470 photos uploaded!

Nearby

Snow Depth

Station Depth Elevation
No new snow has been reported.

Coastal Water Temperatures

Place Temperature
No Stations Reporting

Earthquake Activity

City Distance Mag. Time & Date
No recent earthquake activity has been reported nearby.
Minimum magnitude displayed is 2.5.

Nearby Weather Stations

Station Location Temp. Dew Point Humidity Wind Precip. Elev Updated Type
RAWS JACKSON CO AP KY, Jackson, KY 57 °F 28 °F 33% NNW  at  3 mph 0.00 in / hr 1388 ft 8:15 PM EDT MADIS
Talbert, KY 52.6 °F 38 °F 58% North  at  0.0 mph 0.00 in / hr 994 ft 8:55 PM EDT Normal
Middle Creek Battlefield Area, Prestonsburg, KY 53.6 °F 30 °F 40% North  at  0.0 mph 0.00 in / hr 728 ft 8:57 PM EDT Rapid Fire

Show More Stations Show Fewer Stations

What do you think?

We're not finished. Please let us know what you like, what you don't like, and what you are still missing.